TFM - Tactical Decision Aid (Experimental) INFO Settings
ID: Runway Winds: CIG/VIS Threshold: METAR Board:

KHKS - Jackson/Hawkins Fld

Updated at: 1338 UTC 23 Jun 2018
Latest TAF at: 1120 UTC 23 Jun 2018

TAF Board

Time1326Z23/14Z23/15Z23/16Z23/17Z23/18Z23/19Z23/20Z23/21Z23/22Z23/23Z24/00Z24/01Z24/02Z
TypeOBSPRVLPRVLPRVLPRVLPRVLPRVLPRVLPRVLPRVLPRVLPRVLPRVLPRVL
VIS10>6>6>6>6>6>6>6>6>6>6>6>6>6
CIG--1818----------------------
CoverSCTOVCOVCSCTSCTSCTSCTSCTSCTSCTSCTSCTSCTSCT
FltCatVFRMVFRMVFRVFRVFRVFRVFRVFRVFRVFRVFRVFRVFRVFR
WX----------------------------
WDir220210210210210210210210210210210210210210
WSpd710101111111111111111111111
WGst----------------------------
TAF
KHKS 231120Z 2312/2412 21010KT P6SM FEW010 BKN018 OVC025
  FM231600 21011KT P6SM SCT040
  FM240900 18006KT P6SM BKN015


METAR Board

Time 23/02Z 23/03Z 23/04Z 23/05Z 23/06Z 23/07Z 23/08Z 23/09Z 23/10Z 23/11Z 23/12Z 23/13Z
Temp71 70 71 71 72 72 73 75 75 75 76 77
Dewpt70 70 70 71 71 72 73 74 74 74 75 76
Altim29.82 29.83 29.84 29.84 29.85 29.86 29.85 29.85 29.88 29.90 29.92 29.94
VIS10 10 10 10 10 9 10 10 10 10 10 10
CIG-- -- -- -- -- -- -- -- 11 -- 23 21
CoverCLRCLRCLRCLRCLRCLRCLRCLRBKNSCTBKNOVC
FltCatVFRVFRVFRVFRVFRVFRVFRVFRMVFRVFRMVFRMVFR
WX------------------------
WDir200180170170170190190190210210210240
WSpd5 5 5 5 5 3 5 5 6 5 4 5
WGst-- -- -- -- -- -- -- -- -- -- -- --
METAR
KHKS 230153Z 20005KT 10SM CLR 22/21 A2982 RMK AO2 SLP091 T02170211
KHKS 230253Z AUTO 18005KT 10SM CLR 21/21 A2983 RMK AO2 SLP092 60000 T02110211 55010
KHKS 230353Z AUTO 17005KT 10SM CLR 22/21 A2984 RMK AO2 SLP094 T02170211
KHKS 230453Z AUTO 17005KT 10SM CLR 22/22 A2984 RMK AO2 SLP095 T02170217
KHKS 230553Z AUTO 17005KT 10SM CLR 22/22 A2985 RMK AO2 SLP098 60000 T02220217 10222 20211 402890211 53006
KHKS 230653Z AUTO 19003KT 9SM CLR 22/22 A2986 RMK AO2 SLP102 T02220222
KHKS 230753Z AUTO 19005KT 10SM CLR 23/23 A2985 RMK AO2 SLP098 T02280228
KHKS 230853Z AUTO 19005KT 10SM CLR 24/23 A2985 RMK AO2 SLP100 T02390233 51001
KHKS 230953Z AUTO 21006KT 10SM BKN011 24/23 A2988 RMK AO2 SLP108 T02390233
KHKS 231102Z AUTO 21005KT 10SM FEW009 SCT018 24/23 A2990 RMK AO2 T02390233
KHKS 231205Z 21004KT 10SM BKN023 24/24 A2992 RMK AO2 T02440239 $
KHKS 231253Z 24005KT 10SM OVC021 25/24 A2994 RMK AO2 SLP130 T02500244 $

TAF/METAR Board Legend

Potential Impact
  None Marginal Slight Moderate High
Visibility (sm) >5 3≤X≤5 2≤X<3 0.5≤X<2 <0.5
Ceiling (100 ft) >30 10≤X≤30 6≤X<10 2≤X<6 <2
Wind Speed (kt) <10 10≤X<20 20≤X<30 ≥30
Wind Gust (kt) <15 15≤X<25 25≤X<35 ≥35
Weather No Wx Reported VCTS -TS,-FZRA TS,FZRA +TS,+FZRA




Page loaded:  13:38 UTC  |   06:38 AM Pacific  |   07:38 AM Mountain  |   08:38 AM Central  |   09:38 AM Eastern

 

ADVISORIES

FORECASTS

FORECASTS

OBSERVATIONS

USER TOOLS

ABOUT US